sensor_id;sensor_type;location;lat;lon;timestamp;pressure;altitude;pressure_sealevel;temperature;humidity
70053;BME280;57398;52.032;4.376;2023-04-02T00:01:22;102788.66;;;6.33;100.00
70053;BME280;57398;52.032;4.376;2023-04-02T00:04:15;102786.75;;;6.35;100.00
70053;BME280;57398;52.032;4.376;2023-04-02T00:07:23;102793.66;;;6.34;100.00
70053;BME280;57398;52.032;4.376;2023-04-02T00:10:27;102792.34;;;6.30;100.00
70053;BME280;57398;52.032;4.376;2023-04-02T00:13:23;102780.50;;;6.27;100.00
70053;BME280;57398;52.032;4.376;2023-04-02T00:16:13;102785.66;;;6.27;100.00
70053;BME280;57398;52.032;4.376;2023-04-02T00:19:05;102787.75;;;6.24;100.00
70053;BME280;57398;52.032;4.376;2023-04-02T00:21:56;102793.63;;;6.16;100.00
70053;BME280;57398;52.032;4.376;2023-04-02T00:24:47;102798.91;;;6.15;100.00
70053;BME280;57398;52.032;4.376;2023-04-02T00:27:36;102791.28;;;6.13;100.00
70053;BME280;57398;52.032;4.376;2023-04-02T00:30:26;102799.19;;;6.12;100.00
70053;BME280;57398;52.032;4.376;2023-04-02T00:33:17;102790.09;;;6.07;100.00
70053;BME280;57398;52.032;4.376;2023-04-02T00:36:07;102790.22;;;6.06;100.00
70053;BME280;57398;52.032;4.376;2023-04-02T00:38:57;102789.44;;;6.05;100.00
70053;BME280;57398;52.032;4.376;2023-04-02T00:41:46;102792.81;;;6.06;100.00
70053;BME280;57398;52.032;4.376;2023-04-02T00:44:36;102783.16;;;6.08;100.00
70053;BME280;57398;52.032;4.376;2023-04-02T00:47:34;102794.59;;;6.05;100.00
70053;BME280;57398;52.032;4.376;2023-04-02T00:50:27;102785.34;;;6.03;100.00
70053;BME280;57398;52.032;4.376;2023-04-02T00:53:23;102791.63;;;6.00;100.00
70053;BME280;57398;52.032;4.376;2023-04-02T00:56:16;102784.81;;;5.99;100.00
70053;BME280;57398;52.032;4.376;2023-04-02T00:59:16;102784.44;;;5.94;100.00
70053;BME280;57398;52.032;4.376;2023-04-02T01:02:21;102787.81;;;5.95;100.00
70053;BME280;57398;52.032;4.376;2023-04-02T01:05:21;102785.34;;;5.93;100.00
70053;BME280;57398;52.032;4.376;2023-04-02T01:08:15;102784.28;;;5.96;100.00
70053;BME280;57398;52.032;4.376;2023-04-02T01:11:22;102787.09;;;5.93;100.00
70053;BME280;57398;52.032;4.376;2023-04-02T01:14:18;102791.59;;;5.91;100.00
70053;BME280;57398;52.032;4.376;2023-04-02T01:17:19;102787.25;;;5.91;100.00
70053;BME280;57398;52.032;4.376;2023-04-02T01:20:40;102794.19;;;5.81;100.00
70053;BME280;57398;52.032;4.376;2023-04-02T01:23:34;102792.41;;;5.81;100.00
70053;BME280;57398;52.032;4.376;2023-04-02T01:26:35;102788.94;;;5.73;100.00
70053;BME280;57398;52.032;4.376;2023-04-02T01:29:30;102794.47;;;5.78;100.00
70053;BME280;57398;52.032;4.376;2023-04-02T01:32:20;102792.69;;;5.78;100.00
70053;BME280;57398;52.032;4.376;2023-04-02T01:35:10;102796.38;;;5.76;100.00
70053;BME280;57398;52.032;4.376;2023-04-02T01:38:02;102799.25;;;5.73;100.00
70053;BME280;57398;52.032;4.376;2023-04-02T01:40:58;102801.53;;;5.76;100.00
70053;BME280;57398;52.032;4.376;2023-04-02T01:43:55;102807.78;;;5.73;100.00
70053;BME280;57398;52.032;4.376;2023-04-02T01:46:46;102809.81;;;5.70;100.00
70053;BME280;57398;52.032;4.376;2023-04-02T01:49:35;102820.13;;;5.70;100.00
70053;BME280;57398;52.032;4.376;2023-04-02T01:52:34;102823.50;;;5.70;100.00
70053;BME280;57398;52.032;4.376;2023-04-02T01:55:29;102829.75;;;5.67;100.00
70053;BME280;57398;52.032;4.376;2023-04-02T01:58:20;102836.41;;;5.70;100.00
70053;BME280;57398;52.032;4.376;2023-04-02T02:01:13;102838.31;;;5.68;100.00
70053;BME280;57398;52.032;4.376;2023-04-02T02:04:05;102836.13;;;5.63;100.00
70053;BME280;57398;52.032;4.376;2023-04-02T02:06:55;102841.56;;;5.51;100.00
70053;BME280;57398;52.032;4.376;2023-04-02T02:09:45;102838.03;;;5.52;100.00
70053;BME280;57398;52.032;4.376;2023-04-02T02:12:33;102843.19;;;5.52;100.00
70053;BME280;57398;52.032;4.376;2023-04-02T02:15:22;102846.16;;;5.47;100.00
70053;BME280;57398;52.032;4.376;2023-04-02T02:18:11;102854.31;;;5.42;100.00
70053;BME280;57398;52.032;4.376;2023-04-02T02:21:04;102846.44;;;5.44;100.00
70053;BME280;57398;52.032;4.376;2023-04-02T02:23:55;102859.06;;;5.47;100.00
70053;BME280;57398;52.032;4.376;2023-04-02T02:26:45;102864.09;;;5.49;100.00
70053;BME280;57398;52.032;4.376;2023-04-02T02:29:37;102870.84;;;5.50;100.00
70053;BME280;57398;52.032;4.376;2023-04-02T02:32:29;102871.13;;;5.46;100.00
70053;BME280;57398;52.032;4.376;2023-04-02T02:35:21;102864.59;;;5.42;100.00
70053;BME280;57398;52.032;4.376;2023-04-02T02:38:28;102879.53;;;5.39;100.00
70053;BME280;57398;52.032;4.376;2023-04-02T02:41:20;102877.78;;;5.30;100.00
70053;BME280;57398;52.032;4.376;2023-04-02T02:44:14;102882.91;;;5.30;100.00
70053;BME280;57398;52.032;4.376;2023-04-02T02:47:09;102892.53;;;5.28;100.00
70053;BME280;57398;52.032;4.376;2023-04-02T02:50:03;102894.84;;;5.31;100.00
70053;BME280;57398;52.032;4.376;2023-04-02T02:52:54;102891.19;;;5.33;100.00
70053;BME280;57398;52.032;4.376;2023-04-02T02:55:46;102906.13;;;5.30;100.00
70053;BME280;57398;52.032;4.376;2023-04-02T02:58:37;102908.00;;;5.28;100.00
70053;BME280;57398;52.032;4.376;2023-04-02T03:01:27;102910.59;;;5.28;100.00
70053;BME280;57398;52.032;4.376;2023-04-02T03:04:18;102929.13;;;5.21;100.00
70053;BME280;57398;52.032;4.376;2023-04-02T03:07:08;102931.41;;;5.15;100.00
70053;BME280;57398;52.032;4.376;2023-04-02T03:10:02;102930.59;;;5.14;100.00
70053;BME280;57398;52.032;4.376;2023-04-02T03:12:57;102932.19;;;5.06;100.00
70053;BME280;57398;52.032;4.376;2023-04-02T03:15:55;102943.69;;;5.01;100.00
70053;BME280;57398;52.032;4.376;2023-04-02T03:18:49;102946.16;;;5.03;100.00
70053;BME280;57398;52.032;4.376;2023-04-02T03:21:42;102957.25;;;5.03;100.00
70053;BME280;57398;52.032;4.376;2023-04-02T03:24:37;102953.47;;;4.98;100.00
70053;BME280;57398;52.032;4.376;2023-04-02T03:27:33;102955.75;;;5.01;100.00
70053;BME280;57398;52.032;4.376;2023-04-02T03:30:28;102960.38;;;4.97;100.00
70053;BME280;57398;52.032;4.376;2023-04-02T03:33:20;102966.22;;;4.99;100.00
70053;BME280;57398;52.032;4.376;2023-04-02T03:36:16;102977.06;;;5.03;100.00
70053;BME280;57398;52.032;4.376;2023-04-02T03:39:12;102974.75;;;5.00;100.00
70053;BME280;57398;52.032;4.376;2023-04-02T03:42:05;102985.06;;;5.00;100.00
70053;BME280;57398;52.032;4.376;2023-04-02T03:44:56;102990.03;;;4.92;100.00
70053;BME280;57398;52.032;4.376;2023-04-02T03:47:52;102992.66;;;4.80;100.00
70053;BME280;57398;52.032;4.376;2023-04-02T03:50:44;102999.56;;;4.80;100.00
70053;BME280;57398;52.032;4.376;2023-04-02T03:53:36;103011.25;;;4.84;100.00
70053;BME280;57398;52.032;4.376;2023-04-02T03:56:27;103020.50;;;4.87;100.00
70053;BME280;57398;52.032;4.376;2023-04-02T03:59:22;103026.22;;;4.90;100.00
70053;BME280;57398;52.032;4.376;2023-04-02T04:02:20;103025.66;;;4.87;100.00
70053;BME280;57398;52.032;4.376;2023-04-02T04:05:23;103029.72;;;4.89;100.00
70053;BME280;57398;52.032;4.376;2023-04-02T04:08:16;103041.72;;;4.79;100.00
70053;BME280;57398;52.032;4.376;2023-04-02T04:11:09;103037.44;;;4.68;100.00
70053;BME280;57398;52.032;4.376;2023-04-02T04:14:01;103033.59;;;4.62;100.00
70053;BME280;57398;52.032;4.376;2023-04-02T04:16:55;103041.03;;;4.56;100.00
70053;BME280;57398;52.032;4.376;2023-04-02T04:19:50;103037.50;;;4.57;100.00
70053;BME280;57398;52.032;4.376;2023-04-02T04:22:42;103042.75;;;4.55;100.00
70053;BME280;57398;52.032;4.376;2023-04-02T04:25:30;103049.78;;;4.53;100.00
70053;BME280;57398;52.032;4.376;2023-04-02T04:28:24;103057.41;;;4.55;100.00
70053;BME280;57398;52.032;4.376;2023-04-02T04:31:17;103060.78;;;4.55;100.00
70053;BME280;57398;52.032;4.376;2023-04-02T04:34:13;103069.75;;;4.40;100.00
70053;BME280;57398;52.032;4.376;2023-04-02T04:37:04;103057.63;;;4.31;100.00
70053;BME280;57398;52.032;4.376;2023-04-02T04:39:56;103058.53;;;4.30;100.00
70053;BME280;57398;52.032;4.376;2023-04-02T04:42:49;103078.41;;;4.28;100.00
70053;BME280;57398;52.032;4.376;2023-04-02T04:45:42;103081.00;;;4.28;100.00
70053;BME280;57398;52.032;4.376;2023-04-02T04:48:34;103073.97;;;4.30;100.00
70053;BME280;57398;52.032;4.376;2023-04-02T04:51:26;103086.50;;;4.23;100.00
70053;BME280;57398;52.032;4.376;2023-04-02T04:54:16;103100.53;;;4.19;100.00
70053;BME280;57398;52.032;4.376;2023-04-02T04:57:20;103101.59;;;4.16;100.00
70053;BME280;57398;52.032;4.376;2023-04-02T05:00:13;103096.69;;;4.13;100.00
70053;BME280;57398;52.032;4.376;2023-04-02T05:03:10;103112.94;;;4.14;100.00
70053;BME280;57398;52.032;4.376;2023-04-02T05:06:08;103107.25;;;4.10;100.00
70053;BME280;57398;52.032;4.376;2023-04-02T05:09:00;103107.94;;;4.12;100.00
70053;BME280;57398;52.032;4.376;2023-04-02T05:11:54;103122.41;;;4.13;100.00
70053;BME280;57398;52.032;4.376;2023-04-02T05:14:48;103119.50;;;4.18;100.00
70053;BME280;57398;52.032;4.376;2023-04-02T05:17:42;103135.19;;;4.15;100.00
70053;BME280;57398;52.032;4.376;2023-04-02T05:20:39;103128.72;;;4.20;100.00
70053;BME280;57398;52.032;4.376;2023-04-02T05:23:36;103142.75;;;4.16;100.00
70053;BME280;57398;52.032;4.376;2023-04-02T05:26:29;103152.22;;;4.16;100.00
70053;BME280;57398;52.032;4.376;2023-04-02T05:29:23;103160.06;;;4.14;100.00
70053;BME280;57398;52.032;4.376;2023-04-02T05:32:18;103160.19;;;4.13;100.00
70053;BME280;57398;52.032;4.376;2023-04-02T05:35:14;103163.13;;;4.08;100.00
70053;BME280;57398;52.032;4.376;2023-04-02T05:38:04;103166.41;;;4.10;100.00
70053;BME280;57398;52.032;4.376;2023-04-02T05:40:58;103169.19;;;4.07;100.00
70053;BME280;57398;52.032;4.376;2023-04-02T05:43:49;103168.13;;;4.10;100.00
70053;BME280;57398;52.032;4.376;2023-04-02T05:46:44;103178.41;;;4.10;100.00
70053;BME280;57398;52.032;4.376;2023-04-02T05:49:41;103188.69;;;4.10;100.00
70053;BME280;57398;52.032;4.376;2023-04-02T05:52:33;103187.78;;;3.99;100.00
70053;BME280;57398;52.032;4.376;2023-04-02T05:55:36;103184.84;;;3.93;100.00
70053;BME280;57398;52.032;4.376;2023-04-02T05:58:30;103185.66;;;3.82;100.00
70053;BME280;57398;52.032;4.376;2023-04-02T06:01:29;103185.66;;;3.82;100.00
70053;BME280;57398;52.032;4.376;2023-04-02T06:04:24;103197.09;;;3.89;100.00
70053;BME280;57398;52.032;4.376;2023-04-02T06:07:17;103191.28;;;3.76;100.00
70053;BME280;57398;52.032;4.376;2023-04-02T06:10:09;103193.94;;;3.74;100.00
70053;BME280;57398;52.032;4.376;2023-04-02T06:13:02;103189.53;;;3.76;100.00
70053;BME280;57398;52.032;4.376;2023-04-02T06:15:53;103191.28;;;3.76;100.00
70053;BME280;57398;52.032;4.376;2023-04-02T06:18:42;103183.66;;;3.74;100.00
70053;BME280;57398;52.032;4.376;2023-04-02T06:21:30;103192.66;;;3.58;100.00
70053;BME280;57398;52.032;4.376;2023-04-02T06:24:22;103190.75;;;3.48;100.00
70053;BME280;57398;52.032;4.376;2023-04-02T06:27:15;103200.78;;;3.40;100.00
70053;BME280;57398;52.032;4.376;2023-04-02T06:30:13;103192.00;;;3.43;100.00
70053;BME280;57398;52.032;4.376;2023-04-02T06:33:03;103195.91;;;3.48;100.00
70053;BME280;57398;52.032;4.376;2023-04-02T06:35:53;103205.00;;;3.52;100.00
70053;BME280;57398;52.032;4.376;2023-04-02T06:38:42;103217.25;;;3.49;100.00
70053;BME280;57398;52.032;4.376;2023-04-02T06:45:39;103223.31;;;3.48;100.00
70053;BME280;57398;52.032;4.376;2023-04-02T06:48:30;103215.84;;;3.45;100.00
70053;BME280;57398;52.032;4.376;2023-04-02T06:51:21;103222.69;;;3.33;100.00
70053;BME280;57398;52.032;4.376;2023-04-02T06:54:13;103222.69;;;3.33;100.00
70053;BME280;57398;52.032;4.376;2023-04-02T06:57:05;103222.38;;;3.38;100.00
70053;BME280;57398;52.032;4.376;2023-04-02T06:59:54;103222.09;;;3.29;100.00
70053;BME280;57398;52.032;4.376;2023-04-02T07:02:54;103234.34;;;3.26;100.00
70053;BME280;57398;52.032;4.376;2023-04-02T07:05:43;103237.41;;;3.31;100.00
70053;BME280;57398;52.032;4.376;2023-04-02T07:08:33;103253.25;;;3.25;100.00
70053;BME280;57398;52.032;4.376;2023-04-02T07:11:27;103246.91;;;3.18;100.00
70053;BME280;57398;52.032;4.376;2023-04-02T07:14:18;103255.34;;;3.20;100.00
70053;BME280;57398;52.032;4.376;2023-04-02T07:17:13;103257.28;;;3.16;100.00
70053;BME280;57398;52.032;4.376;2023-04-02T07:20:04;103256.75;;;3.24;100.00
70053;BME280;57398;52.032;4.376;2023-04-02T07:22:53;103273.66;;;3.39;100.00
70053;BME280;57398;52.032;4.376;2023-04-02T07:25:41;103271.91;;;3.40;100.00
70053;BME280;57398;52.032;4.376;2023-04-02T07:28:29;103268.56;;;3.26;100.00
70053;BME280;57398;52.032;4.376;2023-04-02T07:31:22;103279.69;;;3.38;100.00
70053;BME280;57398;52.032;4.376;2023-04-02T07:34:13;103272.00;;;3.38;100.00
70053;BME280;57398;52.032;4.376;2023-04-02T07:37:05;103293.09;;;3.30;100.00
70053;BME280;57398;52.032;4.376;2023-04-02T07:40:20;103296.53;;;3.18;100.00
70053;BME280;57398;52.032;4.376;2023-04-02T07:43:11;103307.19;;;3.25;100.00
70053;BME280;57398;52.032;4.376;2023-04-02T07:46:00;103315.28;;;3.31;100.00
70053;BME280;57398;52.032;4.376;2023-04-02T07:48:51;103325.38;;;3.46;100.00
70053;BME280;57398;52.032;4.376;2023-04-02T07:51:41;103333.09;;;3.46;100.00
70053;BME280;57398;52.032;4.376;2023-04-02T07:54:31;103326.56;;;3.42;100.00
70053;BME280;57398;52.032;4.376;2023-04-02T07:57:19;103331.91;;;3.39;100.00
70053;BME280;57398;52.032;4.376;2023-04-02T08:00:10;103341.38;;;3.62;100.00
70053;BME280;57398;52.032;4.376;2023-04-02T08:02:59;103347.38;;;3.74;100.00
70053;BME280;57398;52.032;4.376;2023-04-02T08:05:51;103336.78;;;3.30;100.00
70053;BME280;57398;52.032;4.376;2023-04-02T08:08:40;103337.44;;;3.45;100.00
70053;BME280;57398;52.032;4.376;2023-04-02T08:11:29;103340.97;;;3.31;100.00
70053;BME280;57398;52.032;4.376;2023-04-02T08:14:18;103355.19;;;3.24;100.00
70053;BME280;57398;52.032;4.376;2023-04-02T08:17:14;103361.53;;;3.31;100.00
70053;BME280;57398;52.032;4.376;2023-04-02T08:20:06;103362.97;;;3.23;100.00
70053;BME280;57398;52.032;4.376;2023-04-02T08:22:58;103382.56;;;3.36;100.00
70053;BME280;57398;52.032;4.376;2023-04-02T08:25:50;103382.06;;;3.31;100.00
70053;BME280;57398;52.032;4.376;2023-04-02T08:28:40;103386.25;;;3.45;100.00
70053;BME280;57398;52.032;4.376;2023-04-02T08:31:29;103385.53;;;3.43;100.00
70053;BME280;57398;52.032;4.376;2023-04-02T08:34:19;103398.22;;;3.33;100.00
70053;BME280;57398;52.032;4.376;2023-04-02T08:37:09;103398.50;;;3.42;100.00
70053;BME280;57398;52.032;4.376;2023-04-02T08:39:58;103403.72;;;3.77;100.00
70053;BME280;57398;52.032;4.376;2023-04-02T08:42:51;103407.41;;;3.73;100.00
70053;BME280;57398;52.032;4.376;2023-04-02T08:46:01;103410.53;;;3.65;100.00
70053;BME280;57398;52.032;4.376;2023-04-02T08:49:10;103414.25;;;3.61;100.00
70053;BME280;57398;52.032;4.376;2023-04-02T08:51:59;103424.28;;;3.77;100.00
70053;BME280;57398;52.032;4.376;2023-04-02T08:54:50;103445.06;;;3.74;100.00
70053;BME280;57398;52.032;4.376;2023-04-02T08:57:46;103446.38;;;4.04;100.00
70053;BME280;57398;52.032;4.376;2023-04-02T09:00:41;103461.19;;;4.24;100.00
70053;BME280;57398;52.032;4.376;2023-04-02T09:03:35;103507.13;;;5.22;100.00
70053;BME280;57398;52.032;4.376;2023-04-02T09:06:28;103590.34;;;6.03;100.00
70053;BME280;57398;52.032;4.376;2023-04-02T09:09:18;103470.75;;;5.70;100.00
70053;BME280;57398;52.032;4.376;2023-04-02T09:12:19;102975.16;;;4.00;100.00
70053;BME280;57398;52.032;4.376;2023-04-02T09:15:21;103033.41;;;3.78;100.00
70053;BME280;57398;52.032;4.376;2023-04-02T09:18:18;103066.34;;;3.85;100.00
70053;BME280;57398;52.032;4.376;2023-04-02T09:21:28;103101.03;;;5.10;100.00
70053;BME280;57398;52.032;4.376;2023-04-02T09:24:19;103069.31;;;5.71;100.00
70053;BME280;57398;52.032;4.376;2023-04-02T09:27:16;103018.09;;;5.97;100.00
70053;BME280;57398;52.032;4.376;2023-04-02T09:30:17;102965.69;;;6.92;100.00
70053;BME280;57398;52.032;4.376;2023-04-02T09:33:10;102899.50;;;7.72;100.00
70053;BME280;57398;52.032;4.376;2023-04-02T09:35:58;102857.84;;;8.28;100.00
70053;BME280;57398;52.032;4.376;2023-04-02T09:38:59;102794.50;;;7.26;100.00
70053;BME280;57398;52.032;4.376;2023-04-02T09:41:52;102790.44;;;7.59;100.00
70053;BME280;57398;52.032;4.376;2023-04-02T09:44:51;102767.09;;;7.51;100.00
70053;BME280;57398;52.032;4.376;2023-04-02T09:47:44;102766.09;;;6.35;100.00
70053;BME280;57398;52.032;4.376;2023-04-02T09:50:33;102790.63;;;6.21;100.00
70053;BME280;57398;52.032;4.376;2023-04-02T09:53:28;102800.66;;;6.79;100.00
70053;BME280;57398;52.032;4.376;2023-04-02T09:56:24;102804.13;;;7.16;100.00
70053;BME280;57398;52.032;4.376;2023-04-02T09:59:14;102782.84;;;7.22;100.00
70053;BME280;57398;52.032;4.376;2023-04-02T10:02:23;102802.13;;;8.15;100.00
70053;BME280;57398;52.032;4.376;2023-04-02T10:05:18;102805.78;;;8.05;100.00
70053;BME280;57398;52.032;4.376;2023-04-02T10:08:26;102804.94;;;7.52;100.00
70053;BME280;57398;52.032;4.376;2023-04-02T10:11:17;102824.34;;;7.20;100.00
70053;BME280;57398;52.032;4.376;2023-04-02T10:14:21;102826.97;;;6.65;100.00
70053;BME280;57398;52.032;4.376;2023-04-02T10:17:16;102848.75;;;6.62;100.00
70053;BME280;57398;52.032;4.376;2023-04-02T10:20:17;102865.31;;;7.61;100.00
70053;BME280;57398;52.032;4.376;2023-04-02T10:23:14;102848.72;;;7.53;100.00
70053;BME280;57398;52.032;4.376;2023-04-02T10:26:15;102832.47;;;6.80;100.00
70053;BME280;57398;52.032;4.376;2023-04-02T10:29:18;102823.69;;;7.54;100.00
70053;BME280;57398;52.032;4.376;2023-04-02T10:32:15;102804.41;;;7.30;100.00
70053;BME280;57398;52.032;4.376;2023-04-02T10:35:14;102808.19;;;7.54;100.00
70053;BME280;57398;52.032;4.376;2023-04-02T10:38:23;102816.81;;;7.27;100.00
70053;BME280;57398;52.032;4.376;2023-04-02T10:41:31;102853.19;;;7.61;100.00
70053;BME280;57398;52.032;4.376;2023-04-02T10:47:37;102828.09;;;8.32;100.00
70053;BME280;57398;52.032;4.376;2023-04-02T10:50:37;102809.50;;;8.36;100.00
70053;BME280;57398;52.032;4.376;2023-04-02T10:53:39;102802.13;;;8.15;100.00
70053;BME280;57398;52.032;4.376;2023-04-02T10:56:31;102824.41;;;8.08;100.00
70053;BME280;57398;52.032;4.376;2023-04-02T10:59:40;102814.50;;;7.78;100.00
70053;BME280;57398;52.032;4.376;2023-04-02T11:02:49;102836.31;;;8.01;100.00
70053;BME280;57398;52.032;4.376;2023-04-02T11:05:40;102828.41;;;8.55;100.00
70053;BME280;57398;52.032;4.376;2023-04-02T11:08:38;102819.97;;;8.27;100.00
70053;BME280;57398;52.032;4.376;2023-04-02T11:11:30;102807.34;;;8.24;100.00
70053;BME280;57398;52.032;4.376;2023-04-02T11:14:24;102804.63;;;8.33;100.00
70053;BME280;57398;52.032;4.376;2023-04-02T11:17:15;102821.72;;;8.44;100.00
70053;BME280;57398;52.032;4.376;2023-04-02T11:23:34;102861.03;;;7.95;100.00
70053;BME280;57398;52.032;4.376;2023-04-02T11:26:30;102848.56;;;7.91;100.00
70053;BME280;57398;52.032;4.376;2023-04-02T11:29:22;102867.28;;;8.37;100.00
70053;BME280;57398;52.032;4.376;2023-04-02T11:32:28;102863.81;;;8.80;100.00
70053;BME280;57398;52.032;4.376;2023-04-02T11:35:35;102853.25;;;8.74;100.00
70053;BME280;57398;52.032;4.376;2023-04-02T11:38:48;102857.97;;;8.18;100.00
70053;BME280;57398;52.032;4.376;2023-04-02T11:42:01;102872.97;;;8.14;100.00
70053;BME280;57398;52.032;4.376;2023-04-02T11:44:53;102856.00;;;7.94;100.00
70053;BME280;57398;52.032;4.376;2023-04-02T11:48:26;102855.41;;;7.56;100.00
70053;BME280;57398;52.032;4.376;2023-04-02T11:51:48;102871.50;;;8.12;100.00
70053;BME280;57398;52.032;4.376;2023-04-02T11:55:04;102859.97;;;8.06;100.00
70053;BME280;57398;52.032;4.376;2023-04-02T12:01:26;102874.13;;;7.76;100.00
70053;BME280;57398;52.032;4.376;2023-04-02T12:07:54;102896.28;;;7.96;100.00
70053;BME280;57398;52.032;4.376;2023-04-02T12:15:04;102882.41;;;8.24;100.00
70053;BME280;57398;52.032;4.376;2023-04-02T12:18:03;102876.91;;;8.01;100.00
70053;BME280;57398;52.032;4.376;2023-04-02T12:20:56;102892.25;;;7.94;100.00
70053;BME280;57398;52.032;4.376;2023-04-02T12:24:01;102914.78;;;8.02;100.00
70053;BME280;57398;52.032;4.376;2023-04-02T12:27:06;102929.63;;;8.17;100.00
70053;BME280;57398;52.032;4.376;2023-04-02T12:30:20;102898.06;;;8.14;100.00
70053;BME280;57398;52.032;4.376;2023-04-02T12:33:28;102907.59;;;8.39;100.00
70053;BME280;57398;52.032;4.376;2023-04-02T12:36:22;102920.13;;;8.44;100.00
70053;BME280;57398;52.032;4.376;2023-04-02T12:39:15;102916.59;;;8.27;100.00
70053;BME280;57398;52.032;4.376;2023-04-02T12:42:04;102924.50;;;8.44;100.00
70053;BME280;57398;52.032;4.376;2023-04-02T12:44:53;102937.84;;;8.13;100.00
70053;BME280;57398;52.032;4.376;2023-04-02T12:47:43;102935.50;;;7.84;100.00
70053;BME280;57398;52.032;4.376;2023-04-02T12:50:32;102938.72;;;8.04;100.00
70053;BME280;57398;52.032;4.376;2023-04-02T12:53:23;102950.63;;;8.32;100.00
70053;BME280;57398;52.032;4.376;2023-04-02T12:56:19;102943.53;;;8.16;100.00
70053;BME280;57398;52.032;4.376;2023-04-02T12:59:26;102934.97;;;8.16;100.00
70053;BME280;57398;52.032;4.376;2023-04-02T13:02:20;102949.28;;;8.46;100.00
70053;BME280;57398;52.032;4.376;2023-04-02T13:05:30;102945.13;;;8.53;100.00
70053;BME280;57398;52.032;4.376;2023-04-02T13:08:24;102944.25;;;8.27;100.00
70053;BME280;57398;52.032;4.376;2023-04-02T13:11:13;102960.78;;;8.52;100.00
70053;BME280;57398;52.032;4.376;2023-04-02T13:14:06;102943.28;;;8.46;100.00
70053;BME280;57398;52.032;4.376;2023-04-02T13:16:58;102956.53;;;8.43;100.00
70053;BME280;57398;52.032;4.376;2023-04-02T13:19:49;102952.44;;;8.58;100.00
70053;BME280;57398;52.032;4.376;2023-04-02T13:22:37;102954.44;;;8.72;100.00
70053;BME280;57398;52.032;4.376;2023-04-02T13:25:29;102955.09;;;8.74;100.00
70053;BME280;57398;52.032;4.376;2023-04-02T13:28:18;102943.88;;;8.66;100.00
70053;BME280;57398;52.032;4.376;2023-04-02T13:31:13;102943.88;;;8.66;100.00
70053;BME280;57398;52.032;4.376;2023-04-02T13:34:04;102939.63;;;8.91;100.00
70053;BME280;57398;52.032;4.376;2023-04-02T13:36:53;102938.53;;;8.93;100.00
70053;BME280;57398;52.032;4.376;2023-04-02T13:39:41;102934.91;;;8.78;100.00
70053;BME280;57398;52.032;4.376;2023-04-02T13:42:30;102958.88;;;9.14;100.00
70053;BME280;57398;52.032;4.376;2023-04-02T13:45:22;102950.97;;;8.90;100.00
70053;BME280;57398;52.032;4.376;2023-04-02T13:48:15;102954.56;;;8.97;100.00
70053;BME280;57398;52.032;4.376;2023-04-02T13:51:05;102950.72;;;8.75;100.00
70053;BME280;57398;52.032;4.376;2023-04-02T13:53:56;102950.31;;;8.88;100.00
70053;BME280;57398;52.032;4.376;2023-04-02T13:56:44;102953.31;;;9.09;100.00
70053;BME280;57398;52.032;4.376;2023-04-02T13:59:32;102952.91;;;8.88;100.00
70053;BME280;57398;52.032;4.376;2023-04-02T14:02:23;102982.34;;;8.78;100.00
70053;BME280;57398;52.032;4.376;2023-04-02T14:05:25;102989.44;;;9.02;100.00
70053;BME280;57398;52.032;4.376;2023-04-02T14:08:24;103007.22;;;8.97;100.00
70053;BME280;57398;52.032;4.376;2023-04-02T14:11:26;102999.41;;;8.89;100.00
70053;BME280;57398;52.032;4.376;2023-04-02T14:14:32;102997.06;;;9.04;100.00
70053;BME280;57398;52.032;4.376;2023-04-02T14:17:29;102995.31;;;9.13;100.00
70053;BME280;57398;52.032;4.376;2023-04-02T14:20:31;103006.06;;;8.92;100.00
70053;BME280;57398;52.032;4.376;2023-04-02T14:23:42;103014.31;;;9.21;100.00
70053;BME280;57398;52.032;4.376;2023-04-02T14:26:49;102997.25;;;9.11;100.00
70053;BME280;57398;52.032;4.376;2023-04-02T14:29:46;103008.00;;;9.24;100.00
70053;BME280;57398;52.032;4.376;2023-04-02T14:32:41;102983.81;;;8.81;100.00
70053;BME280;57398;52.032;4.376;2023-04-02T14:35:42;102988.00;;;9.08;100.00
70053;BME280;57398;52.032;4.376;2023-04-02T14:38:35;102992.56;;;8.80;100.00
70053;BME280;57398;52.032;4.376;2023-04-02T14:41:32;103007.38;;;8.70;100.00
70053;BME280;57398;52.032;4.376;2023-04-02T14:44:26;103019.13;;;9.08;100.00
70053;BME280;57398;52.032;4.376;2023-04-02T14:47:20;103016.94;;;9.30;100.00
70053;BME280;57398;52.032;4.376;2023-04-02T14:50:11;103006.94;;;9.00;100.00
70053;BME280;57398;52.032;4.376;2023-04-02T14:53:06;103013.81;;;9.18;100.00
70053;BME280;57398;52.032;4.376;2023-04-02T14:55:58;103020.25;;;9.06;100.00
70053;BME280;57398;52.032;4.376;2023-04-02T14:58:48;103026.66;;;8.93;100.00
70053;BME280;57398;52.032;4.376;2023-04-02T15:01:42;103011.97;;;8.76;100.00
70053;BME280;57398;52.032;4.376;2023-04-02T15:04:34;103027.81;;;8.99;100.00
70053;BME280;57398;52.032;4.376;2023-04-02T15:07:28;103033.84;;;8.81;100.00
70053;BME280;57398;52.032;4.376;2023-04-02T15:10:28;103040.72;;;9.17;100.00
70053;BME280;57398;52.032;4.376;2023-04-02T15:13:23;103024.38;;;8.90;100.00
70053;BME280;57398;52.032;4.376;2023-04-02T15:16:17;103025.09;;;9.00;100.00
70053;BME280;57398;52.032;4.376;2023-04-02T15:19:11;103026.81;;;9.26;100.00
70053;BME280;57398;52.032;4.376;2023-04-02T15:22:07;103017.91;;;8.94;100.00
70053;BME280;57398;52.032;4.376;2023-04-02T15:25:09;103011.16;;;9.01;100.00
70053;BME280;57398;52.032;4.376;2023-04-02T15:28:08;103014.41;;;9.04;100.00
70053;BME280;57398;52.032;4.376;2023-04-02T15:31:05;103027.56;;;9.10;100.00
70053;BME280;57398;52.032;4.376;2023-04-02T15:34:05;103009.63;;;9.25;100.00
70053;BME280;57398;52.032;4.376;2023-04-02T15:37:06;103019.31;;;9.15;100.00